Logo AVAMET
Benvolgut visitant, si us plau, ingressa Recuperar contrasenya
AVAMET paisatges

Salem

Dades diàries. Acumulats / Últims 30 dies disponibles

Data Temperatura (°C) Humitat rel. (%) Pressió rel. (hPa) Vent (km/h) Precipitació
Mínima Mitjana Màxima Amplitud
tèrmica
Mínima Mitjana Màxima Mínima Mitjana Màxima Predom. Mitjana Ràfega
màxima
Total
(mm)
Índex-n
Mínima Mitjana Màxima Mínima Mitjana Màxima n
0 a 1
P0 max
mm 5'
Dades mensuals acumulades fins l'últim dia disponible
02/2020 4,6 10,2 14,9 14,2 12,6 19,4 24,8 20,2 31 72 96 0 1.025 1.033   2,4 35,4 16,8
Dades anuals acumulades fins l'últim dia disponible
2020 2,2 8,1 14,9 11,7 7,7 16,3 24,8 22,6 31 74 98 0 1.025 1.034   2,9 64,4 428,8
Últims 30 dies disponibles
20-02-2020 6,3     11,1     17,0 10,7 51 79 92 1.024 1.026 1.029 SE 1,6 20,9 0,0
19-02-2020 9,3     11,4     15,8 6,5 75 89 96 1.029 1.031 1.033 NNW 1,0 17,7 4,0
18-02-2020 10,4     11,3     12,6 2,2 80 92 95 1.028 1.030 1.031 E 1,4 25,7 12,8 0,11 0,50
17-02-2020 12,3     18,0     22,9 10,6 41 57 81 1.023 1.025 1.028 W 3,7 27,4 0,0
16-02-2020 10,3     16,8     24,1 13,8 34 67 91 1.024 1.026 1.027 SE 1,6 19,3 0,0
15-02-2020 8,7     13,9     22,6 13,9 47 74 92 1.024 1.026 1.027 SE 1,0 9,7 0,0
14-02-2020 10,7     14,0     19,2 8,5 56 69 80 1.023 1.024 1.026 SE 2,3 16,1 0,0
13-02-2020 9,4     14,3     19,8 10,4 54 74 93 1.021 1.023 1.024 W 3,1 24,1 0,0
12-02-2020 10,1     12,9     17,6 7,5 64 79 89 1.022 1.023 1.025 ESE 2,9 29,0 0,0
11-02-2020 11,7     17,1     23,7 12,0 45 64 86 1.021 1.024 1.027 SE 1,6 19,3 0,0
10-02-2020 13,7     16,7     21,7 8,0 53 60 68 1.026 1.029 1.032 W 5,6 29,0 0,0
09-02-2020 9,1     13,1     17,8 8,7 58 73 86 1.027 1.029 1.032 ESE 1,4 16,1 0,0
08-02-2020 7,3     11,9     17,4 10,1 56 75 90 1.024 1.025 1.028 ESE 1,3 12,9 0,0
07-02-2020 7,3     9,6     13,2 5,9 72 82 90 1.023 1.025 1.026 SE 0,6 9,7 0,0
06-02-2020 4,6     8,9     13,8 9,2 68 83 91 1.025 1.027 1.029 ESE 2,3 22,5 0,0
05-02-2020 8,3     11,0     15,6 7,3 62 78 85 1.026 1.028 1.030 SE 2,6 35,4 0,0
04-02-2020 14,9     19,6     24,8 9,9 31 43 57 1.022 1.025 1.027 ESE 3,1 22,5 0,0
03-02-2020 13,3     18,4     24,7 11,4 38 56 68 1.026 1.028 1.030 SE 2,3 12,9 0,0
02-02-2020 11,3     16,3     22,5 11,2 54 71 84 1.027 1.028 1.030 ESE 2,3 16,1 0,0
01-02-2020 14,6     17,4     20,3 5,7 59 69 76 0 1.002 1.027 W 5,3 27,4 0,0
31-01-2020 12,7     14,8     17,8 5,1 63 68 75 1.022 1.023 1.025 O 5,7 37,0 0,0
30-01-2020 13,1     15,3     18,8 5,7 45 62 71 1.021 1.022 1.024 W 6,6 30,6 0,0
29-01-2020 13,7     15,2     18,1 4,4 63 69 73 1.022 1.023 1.024 W 6,0 27,4 0,0
28-01-2020 12,3     13,9     15,6 3,3 65 69 73 1.022 1.023 1.024 W 9,8 37,0 0,0
27-01-2020 7,3     10,8     14,0 6,7 57 67 77 1.022 1.024 1.025 W 7,1 37,0 0,0
26-01-2020 7,7     11,0     14,7 7,0 56 74 94 1.019 1.021 1.025 WNW 3,5 22,5 0,0
25-01-2020 6,9     9,0     11,5 4,6 87 92 95 1.017 1.019 1.021 ESE 1,3 14,5 0,6
24-01-2020 5,8     8,2     9,8 4,0 91 94 96 1.021 1.022 1.024 SE 0,6 19,3 0,2
23-01-2020 4,8     8,1     11,6 6,8 83 88 94 1.019 1.021 1.023 ESE 1,8 16,1 0,0
22-01-2020 5,9     7,9     10,3 4,4 88 91 94 1.017 1.019 1.020 ESE 1,4 14,5 0,2
Últims 13 mesos disponibles
01/2020 2,2 6,8 13,7 10,1 7,7 14,3 18,8 16,6 47 75 96 1.015 1.025 1.032 ESE 3,3 64,4 412,0
12/2019 5,1 9,6 17,1 12,7 10,5 16,5 23,5 18,4 45 70 94 1.003 1.019 1.033 W 4,7 88,5 209,4
11/2019 4,6 10,7 19,3 13,7 12,6 17,1 24,3 19,7 52 62 79 1.000 1.011 1.019 W 7,0 59,5 26,8
10/2019 10,4 15,3 18,6 19,2 13,9 24,1 31,8 21,4 43 68 90 1.008 1.016 1.022 ESE 2,8 45,1 53,0
09/2019 12,6 18,5 22,1 22,0 18,0 26,1 33,2 20,6 47 77 96 1.010 1.017 1.024 ENE 3,5 72,4 336,2
08/2019 17,2 20,8 25,2 25,8 25,8 31,8 40,2 23,0 31 68 85 1.010 1.015 1.020 ENE 4,4 40,2 49,0
07/2019 19,4 21,1 25,2 26,4 27,2 32,3 38,4 19,0 38 62 80 1.006 1.012 1.015 ENE 5,8 64,4 1,4
06/2019 11,7 16,8 22,7 22,4 19,7 28,6 36,8 25,1 36 60 81 1.008 1.015 1.021 ENE 4,9 53,1 0,2
05/2019 7,4 13,4 19,6 18,2 18,4 24,0 30,2 22,8 51 65 81 1.005 1.015 1.024 ENE 4,5 61,2 11,4
04/2019 7,7 10,5 13,7 14,1 11,3 18,4 27,2 19,5 37 69 95 999 1.013 1.024 W 5,7 64,4 391,8
03/2019 5,2 9,2 16,1 13,8 11,4 19,0 27,1 21,9 33 56 92 1.010 1.022 1.030 ESE 4,1 56,3 69,2
02/2019 2,7 6,8 12,1 11,5 10,7 16,7 23,8 21,1 33 61 86 995 1.025 1.033 SE 4,3 74,0 0,6
01/2019 0,2 6,3 11,1 10,3 9,6 15,0 19,7 19,5 39 57 79 1.003 1.019 1.031 ESE 4,2 56,3 6,6
Tots els anys disponibles
2019 0,2 13,3 25,2 17,6 9,6 22,6 40,2 40,0 31 65 95 995 1.017 1.033 ENE 4,7 88,5 1.157,2
2018 0,7 13,3 24,8 17,4 5,0 22,3 36,9 36,2 32 70 96 1.000 1.018 1.031 ENE 4,9 85,3 705,0
2017 1,2 8,1 15,4 12,1 9,4 16,9 24,6 23,4 ESE 4,4 90,1
Temperatura (°C)
Humitat relativa (%)
Velocitat del vent i ràfega màxima (km/h)
Direcció del vent (°)
Pressió (hPa)
Precipitació (mm)
Nota sobre les dades: s'avisa a l'usuari de la provisionalitat i no oficialitat d'aquestes dades
Logo AVAMET blanc
Web allotjada a Sollutia
Llicència de Creative CommonsLa web d'AVAMET i els seus continguts estan subjectes a una llicència de
Reconeixement - No Comercial - Compartir igual
Últimes estacions:  Sorita (AVAMET), Gorga (Soci), Massalavés - Ajuntament (Soci/Inforatge), Albuixech - Polígon (Inforatge), La Torre d'en Besora (Ajuntament soci), Xixona - Sogorb Barranc Blanc (Soci), Pedreguer - Patronat (Soci) - - -